sensor_id;sensor_type;location;lat;lon;timestamp;pressure;altitude;pressure_sealevel;temperature;humidity
63556;BME280;49700;48.072;7.800;2023-03-22T00:01:12;99392.63;;;13.07;52.67
63556;BME280;49700;48.072;7.800;2023-03-22T00:03:37;99395.50;;;13.04;52.89
63556;BME280;49700;48.072;7.800;2023-03-22T00:06:03;99391.78;;;13.07;53.46
63556;BME280;49700;48.072;7.800;2023-03-22T00:08:29;99387.69;;;13.03;53.80
63556;BME280;49700;48.072;7.800;2023-03-22T00:10:54;99385.16;;;13.01;53.52
63556;BME280;49700;48.072;7.800;2023-03-22T00:13:20;99378.34;;;12.99;53.54
63556;BME280;49700;48.072;7.800;2023-03-22T00:15:45;99382.91;;;12.97;53.58
63556;BME280;49700;48.072;7.800;2023-03-22T00:18:14;99373.44;;;12.94;53.53
63556;BME280;49700;48.072;7.800;2023-03-22T00:20:53;99380.72;;;12.91;53.69
63556;BME280;49700;48.072;7.800;2023-03-22T00:23:20;99373.03;;;12.88;53.96
63556;BME280;49700;48.072;7.800;2023-03-22T00:25:46;99373.19;;;12.86;53.98
63556;BME280;49700;48.072;7.800;2023-03-22T00:28:12;99372.44;;;12.84;53.88
63556;BME280;49700;48.072;7.800;2023-03-22T00:30:38;99373.53;;;12.81;54.07
63556;BME280;49700;48.072;7.800;2023-03-22T00:33:04;99366.69;;;12.79;54.19
63556;BME280;49700;48.072;7.800;2023-03-22T00:35:30;99370.41;;;12.76;54.18
63556;BME280;49700;48.072;7.800;2023-03-22T00:37:55;99361.91;;;12.73;54.29
63556;BME280;49700;48.072;7.800;2023-03-22T00:40:21;99356.88;;;12.70;54.45
63556;BME280;49700;48.072;7.800;2023-03-22T00:42:48;99356.97;;;12.68;54.50
63556;BME280;49700;48.072;7.800;2023-03-22T00:45:14;99359.75;;;12.67;54.79
63556;BME280;49700;48.072;7.800;2023-03-22T00:47:39;99360.91;;;12.62;54.78
63556;BME280;49700;48.072;7.800;2023-03-22T00:50:05;99359.69;;;12.55;54.92
63556;BME280;49700;48.072;7.800;2023-03-22T00:52:31;99373.22;;;12.51;55.06
63556;BME280;49700;48.072;7.800;2023-03-22T00:54:58;99367.81;;;12.41;55.45
63556;BME280;49700;48.072;7.800;2023-03-22T00:57:23;99362.25;;;12.22;55.73
63556;BME280;49700;48.072;7.800;2023-03-22T00:59:49;99362.84;;;12.01;56.30
63556;BME280;49700;48.072;7.800;2023-03-22T01:02:18;99368.72;;;11.81;56.68
63556;BME280;49700;48.072;7.800;2023-03-22T01:04:43;99366.44;;;11.63;56.96
63556;BME280;49700;48.072;7.800;2023-03-22T01:07:13;99371.78;;;11.50;57.35
63556;BME280;49700;48.072;7.800;2023-03-22T01:09:50;99364.28;;;11.44;57.57
63556;BME280;49700;48.072;7.800;2023-03-22T01:12:17;99355.69;;;11.42;57.79
63556;BME280;49700;48.072;7.800;2023-03-22T01:14:43;99353.91;;;11.43;57.77
63556;BME280;49700;48.072;7.800;2023-03-22T01:17:09;99341.47;;;11.45;57.66
63556;BME280;49700;48.072;7.800;2023-03-22T01:19:35;99349.16;;;11.48;57.67
63556;BME280;49700;48.072;7.800;2023-03-22T01:22:02;99350.81;;;11.49;57.90
63556;BME280;49700;48.072;7.800;2023-03-22T01:24:28;99343.66;;;11.51;57.79
63556;BME280;49700;48.072;7.800;2023-03-22T01:26:54;99347.88;;;11.54;57.80
63556;BME280;49700;48.072;7.800;2023-03-22T01:29:19;99338.28;;;11.52;57.83
63556;BME280;49700;48.072;7.800;2023-03-22T01:31:45;99333.16;;;11.51;57.88
63556;BME280;49700;48.072;7.800;2023-03-22T01:34:11;99340.09;;;11.52;57.94
63556;BME280;49700;48.072;7.800;2023-03-22T01:36:36;99327.66;;;11.54;57.93
63556;BME280;49700;48.072;7.800;2023-03-22T01:39:02;99332.81;;;11.56;58.03
63556;BME280;49700;48.072;7.800;2023-03-22T01:41:28;99331.03;;;11.56;57.92
63556;BME280;49700;48.072;7.800;2023-03-22T01:44:13;99333.66;;;11.56;57.88
63556;BME280;49700;48.072;7.800;2023-03-22T01:46:40;99329.34;;;11.55;57.93
63556;BME280;49700;48.072;7.800;2023-03-22T01:49:10;99326.84;;;11.54;58.15
63556;BME280;49700;48.072;7.800;2023-03-22T01:51:39;99330.53;;;11.51;58.29
63556;BME280;49700;48.072;7.800;2023-03-22T01:57:16;99331.00;;;11.32;58.46
63556;BME280;49700;48.072;7.800;2023-03-22T01:59:43;99326.72;;;11.18;58.69
63556;BME280;49700;48.072;7.800;2023-03-22T02:02:17;99325.91;;;11.05;59.00
63556;BME280;49700;48.072;7.800;2023-03-22T02:04:47;99327.47;;;10.95;59.16
63556;BME280;49700;48.072;7.800;2023-03-22T02:07:16;99323.59;;;10.88;59.46
63556;BME280;49700;48.072;7.800;2023-03-22T02:14:06;99322.34;;;10.55;60.22
63556;BME280;49700;48.072;7.800;2023-03-22T02:31:12;99324.78;;;10.05;61.52
63556;BME280;49700;48.072;7.800;2023-03-22T02:37:02;99306.22;;;9.81;61.99
63556;BME280;49700;48.072;7.800;2023-03-22T02:39:46;99306.09;;;9.70;62.29
63556;BME280;49700;48.072;7.800;2023-03-22T02:49:57;99304.16;;;9.59;62.72
63556;BME280;49700;48.072;7.800;2023-03-22T02:55:09;99304.38;;;9.42;63.41
63556;BME280;49700;48.072;7.800;2023-03-22T03:00:09;99313.75;;;9.31;63.41
63556;BME280;49700;48.072;7.800;2023-03-22T03:02:41;99309.59;;;9.29;63.44
63556;BME280;49700;48.072;7.800;2023-03-22T03:05:10;99303.47;;;9.28;63.76
63556;BME280;49700;48.072;7.800;2023-03-22T03:07:37;99309.59;;;9.29;63.74
63556;BME280;49700;48.072;7.800;2023-03-22T03:10:04;99306.00;;;9.30;63.56
63556;BME280;49700;48.072;7.800;2023-03-22T03:12:31;99306.00;;;9.30;63.41
63556;BME280;49700;48.072;7.800;2023-03-22T03:14:56;99310.50;;;9.28;63.50
63556;BME280;49700;48.072;7.800;2023-03-22T03:17:40;99310.78;;;9.23;63.60
63556;BME280;49700;48.072;7.800;2023-03-22T03:20:43;99308.34;;;9.20;63.68
63556;BME280;49700;48.072;7.800;2023-03-22T03:25:56;99309.59;;;9.15;63.38
63556;BME280;49700;48.072;7.800;2023-03-22T03:28:47;99314.25;;;9.09;63.52
63556;BME280;49700;48.072;7.800;2023-03-22T03:34:01;99315.44;;;8.91;63.92
63556;BME280;49700;48.072;7.800;2023-03-22T03:36:32;99321.03;;;8.85;64.06
63556;BME280;49700;48.072;7.800;2023-03-22T03:39:00;99325.63;;;8.81;64.13
63556;BME280;49700;48.072;7.800;2023-03-22T03:41:29;99326.56;;;8.80;64.16
63556;BME280;49700;48.072;7.800;2023-03-22T03:43:55;99321.41;;;8.79;64.12
63556;BME280;49700;48.072;7.800;2023-03-22T03:46:23;99327.75;;;8.75;64.23
63556;BME280;49700;48.072;7.800;2023-03-22T03:48:49;99323.91;;;8.66;64.51
63556;BME280;49700;48.072;7.800;2023-03-22T03:51:15;99323.53;;;8.58;64.67
63556;BME280;49700;48.072;7.800;2023-03-22T03:53:41;99319.25;;;8.57;64.72
63556;BME280;49700;48.072;7.800;2023-03-22T03:56:07;99327.00;;;8.58;64.76
63556;BME280;49700;48.072;7.800;2023-03-22T03:58:38;99317.66;;;8.54;64.93
63556;BME280;49700;48.072;7.800;2023-03-22T04:01:03;99318.19;;;8.45;64.93
63556;BME280;49700;48.072;7.800;2023-03-22T04:03:51;99310.03;;;8.35;65.33
63556;BME280;49700;48.072;7.800;2023-03-22T04:06:36;99318.88;;;8.33;65.37
63556;BME280;49700;48.072;7.800;2023-03-22T04:09:25;99302.81;;;8.25;65.51
63556;BME280;49700;48.072;7.800;2023-03-22T04:11:56;99301.28;;;8.20;65.66
63556;BME280;49700;48.072;7.800;2023-03-22T04:14:22;99310.16;;;8.18;65.56
63556;BME280;49700;48.072;7.800;2023-03-22T04:16:50;99311.84;;;8.19;65.59
63556;BME280;49700;48.072;7.800;2023-03-22T04:19:19;99305.78;;;8.18;65.66
63556;BME280;49700;48.072;7.800;2023-03-22T04:21:45;99308.47;;;8.17;65.63
63556;BME280;49700;48.072;7.800;2023-03-22T04:24:10;99297.94;;;8.18;65.57
63556;BME280;49700;48.072;7.800;2023-03-22T04:26:40;99293.53;;;8.19;65.67
63556;BME280;49700;48.072;7.800;2023-03-22T04:29:22;99295.13;;;8.22;65.42
63556;BME280;49700;48.072;7.800;2023-03-22T04:31:53;99283.72;;;8.23;65.45
63556;BME280;49700;48.072;7.800;2023-03-22T04:34:27;99286.16;;;8.26;65.40
63556;BME280;49700;48.072;7.800;2023-03-22T04:36:59;99285.25;;;8.27;65.47
63556;BME280;49700;48.072;7.800;2023-03-22T04:39:29;99290.38;;;8.28;65.45
63556;BME280;49700;48.072;7.800;2023-03-22T04:42:13;99287.56;;;8.31;65.14
63556;BME280;49700;48.072;7.800;2023-03-22T04:44:39;99280.59;;;8.32;65.04
63556;BME280;49700;48.072;7.800;2023-03-22T04:47:05;99288.59;;;8.29;65.10
63556;BME280;49700;48.072;7.800;2023-03-22T04:49:31;99296.63;;;8.26;65.42
63556;BME280;49700;48.072;7.800;2023-03-22T04:51:57;99290.81;;;8.20;65.34
63556;BME280;49700;48.072;7.800;2023-03-22T04:54:31;99281.47;;;8.16;65.49
63556;BME280;49700;48.072;7.800;2023-03-22T04:56:57;99284.09;;;8.16;65.52
63556;BME280;49700;48.072;7.800;2023-03-22T04:59:24;99278.94;;;8.15;65.38
63556;BME280;49700;48.072;7.800;2023-03-22T05:01:50;99273.91;;;8.12;65.33
63556;BME280;49700;48.072;7.800;2023-03-22T05:04:20;99273.63;;;8.02;65.67
63556;BME280;49700;48.072;7.800;2023-03-22T05:06:48;99272.00;;;8.00;65.89
63556;BME280;49700;48.072;7.800;2023-03-22T05:09:29;99267.88;;;7.95;65.86
63556;BME280;49700;48.072;7.800;2023-03-22T05:11:55;99275.97;;;7.91;65.97
63556;BME280;49700;48.072;7.800;2023-03-22T05:14:47;99283.19;;;7.87;65.97
63556;BME280;49700;48.072;7.800;2023-03-22T05:17:15;99280.56;;;7.87;66.38
63556;BME280;49700;48.072;7.800;2023-03-22T05:19:42;99283.00;;;7.90;66.17
63556;BME280;49700;48.072;7.800;2023-03-22T05:22:08;99278.53;;;7.92;65.44
63556;BME280;49700;48.072;7.800;2023-03-22T05:24:47;99277.69;;;7.92;65.77
63556;BME280;49700;48.072;7.800;2023-03-22T05:27:20;99285.59;;;7.90;65.79
63556;BME280;49700;48.072;7.800;2023-03-22T05:29:57;99278.69;;;7.89;65.85
63556;BME280;49700;48.072;7.800;2023-03-22T05:32:32;99275.97;;;7.91;65.71
63556;BME280;49700;48.072;7.800;2023-03-22T05:34:58;99280.38;;;7.90;65.92
63556;BME280;49700;48.072;7.800;2023-03-22T05:37:34;99282.09;;;7.91;65.44
63556;BME280;49700;48.072;7.800;2023-03-22T05:39:59;99280.31;;;7.92;65.65
63556;BME280;49700;48.072;7.800;2023-03-22T05:42:33;99287.31;;;7.91;65.53
63556;BME280;49700;48.072;7.800;2023-03-22T05:45:02;99288.16;;;7.92;65.55
63556;BME280;49700;48.072;7.800;2023-03-22T05:47:28;99289.06;;;7.91;65.46
63556;BME280;49700;48.072;7.800;2023-03-22T05:50:04;99284.78;;;7.90;65.41
63556;BME280;49700;48.072;7.800;2023-03-22T05:52:35;99293.38;;;7.92;65.27
63556;BME280;49700;48.072;7.800;2023-03-22T05:55:16;99293.19;;;7.95;65.43
63556;BME280;49700;48.072;7.800;2023-03-22T05:57:43;99285.09;;;8.00;65.35
63556;BME280;49700;48.072;7.800;2023-03-22T06:00:13;99281.53;;;8.01;65.21
63556;BME280;49700;48.072;7.800;2023-03-22T06:02:59;99284.06;;;8.02;65.24
63556;BME280;49700;48.072;7.800;2023-03-22T06:05:29;99288.00;;;8.09;65.43
63556;BME280;49700;48.072;7.800;2023-03-22T06:07:56;99293.03;;;8.12;65.38
63556;BME280;49700;48.072;7.800;2023-03-22T06:10:22;99289.59;;;8.12;65.55
63556;BME280;49700;48.072;7.800;2023-03-22T06:12:49;99287.09;;;8.10;65.34
63556;BME280;49700;48.072;7.800;2023-03-22T06:15:22;99287.72;;;8.14;65.39
63556;BME280;49700;48.072;7.800;2023-03-22T06:18:03;99296.22;;;8.17;65.30
63556;BME280;49700;48.072;7.800;2023-03-22T06:20:33;99300.19;;;8.25;64.95
63556;BME280;49700;48.072;7.800;2023-03-22T06:23:05;99292.91;;;8.30;65.00
63556;BME280;49700;48.072;7.800;2023-03-22T06:25:33;99284.75;;;8.34;65.00
63556;BME280;49700;48.072;7.800;2023-03-22T06:27:58;99290.59;;;8.39;64.83
63556;BME280;49700;48.072;7.800;2023-03-22T06:30:24;99293.91;;;8.43;64.88
63556;BME280;49700;48.072;7.800;2023-03-22T06:33:19;99289.97;;;8.50;64.91
63556;BME280;49700;48.072;7.800;2023-03-22T06:35:50;99294.84;;;8.56;64.96
63556;BME280;49700;48.072;7.800;2023-03-22T06:38:24;99284.84;;;8.63;64.79
63556;BME280;49700;48.072;7.800;2023-03-22T06:40:49;99294.75;;;8.72;64.79
63556;BME280;49700;48.072;7.800;2023-03-22T06:43:15;99291.66;;;8.80;64.34
63556;BME280;49700;48.072;7.800;2023-03-22T06:45:47;99283.31;;;8.88;64.19
63556;BME280;49700;48.072;7.800;2023-03-22T06:48:16;99285.41;;;8.97;63.91
63556;BME280;49700;48.072;7.800;2023-03-22T06:50:55;99291.72;;;9.07;63.87
63556;BME280;49700;48.072;7.800;2023-03-22T06:53:29;99293.66;;;9.18;63.54
63556;BME280;49700;48.072;7.800;2023-03-22T06:55:58;99290.47;;;9.27;63.38
63556;BME280;49700;48.072;7.800;2023-03-22T06:58:24;99301.13;;;9.38;63.11
63556;BME280;49700;48.072;7.800;2023-03-22T07:00:49;99303.06;;;9.49;62.68
63556;BME280;49700;48.072;7.800;2023-03-22T07:03:18;99299.63;;;9.61;62.48
63556;BME280;49700;48.072;7.800;2023-03-22T07:06:00;99291.81;;;9.74;62.17
63556;BME280;49700;48.072;7.800;2023-03-22T07:08:28;99298.91;;;9.86;61.94
63556;BME280;49700;48.072;7.800;2023-03-22T07:10:54;99299.88;;;9.98;61.68
63556;BME280;49700;48.072;7.800;2023-03-22T07:13:21;99304.31;;;10.10;61.56
63556;BME280;49700;48.072;7.800;2023-03-22T07:15:57;99310.44;;;10.24;61.24
63556;BME280;49700;48.072;7.800;2023-03-22T07:18:36;99304.28;;;10.37;60.87
63556;BME280;49700;48.072;7.800;2023-03-22T07:21:02;99298.09;;;10.51;60.60
63556;BME280;49700;48.072;7.800;2023-03-22T07:23:28;99292.72;;;10.66;60.43
63556;BME280;49700;48.072;7.800;2023-03-22T07:25:59;99289.13;;;10.79;60.04
63556;BME280;49700;48.072;7.800;2023-03-22T07:28:28;99281.97;;;10.94;59.74
63556;BME280;49700;48.072;7.800;2023-03-22T07:31:13;99278.97;;;11.12;59.52
63556;BME280;49700;48.072;7.800;2023-03-22T07:33:49;99290.09;;;11.28;59.30
63556;BME280;49700;48.072;7.800;2023-03-22T07:36:16;99282.06;;;11.42;58.89
63556;BME280;49700;48.072;7.800;2023-03-22T07:38:49;99288.09;;;11.56;58.80
63556;BME280;49700;48.072;7.800;2023-03-22T07:41:20;99279.22;;;11.69;58.64
63556;BME280;49700;48.072;7.800;2023-03-22T07:44:08;99273.03;;;11.82;58.47
63556;BME280;49700;48.072;7.800;2023-03-22T07:46:39;99274.78;;;11.94;58.05
63556;BME280;49700;48.072;7.800;2023-03-22T07:49:16;99273.84;;;12.06;57.86
63556;BME280;49700;48.072;7.800;2023-03-22T07:52:00;99269.47;;;12.18;57.77
63556;BME280;49700;48.072;7.800;2023-03-22T07:54:26;99266.88;;;12.29;57.43
63556;BME280;49700;48.072;7.800;2023-03-22T07:56:51;99264.84;;;12.44;57.20
63556;BME280;49700;48.072;7.800;2023-03-22T07:59:17;99267.00;;;12.95;56.30
63556;BME280;49700;48.072;7.800;2023-03-22T08:01:43;99262.78;;;14.02;54.07
63556;BME280;49700;48.072;7.800;2023-03-22T08:04:21;99251.84;;;15.30;50.80
63556;BME280;49700;48.072;7.800;2023-03-22T08:06:54;99244.84;;;16.45;48.39
63556;BME280;49700;48.072;7.800;2023-03-22T08:09:25;99239.69;;;17.54;46.30
63556;BME280;49700;48.072;7.800;2023-03-22T08:11:50;99239.59;;;18.44;44.20
63556;BME280;49700;48.072;7.800;2023-03-22T08:14:16;99228.34;;;19.18;42.72
63556;BME280;49700;48.072;7.800;2023-03-22T08:16:42;99223.47;;;19.89;41.20
63556;BME280;49700;48.072;7.800;2023-03-22T08:19:09;99225.59;;;20.34;40.31
63556;BME280;49700;48.072;7.800;2023-03-22T08:21:36;99226.28;;;20.84;39.56
63556;BME280;49700;48.072;7.800;2023-03-22T08:24:03;99231.94;;;21.29;38.28
63556;BME280;49700;48.072;7.800;2023-03-22T08:26:48;99228.13;;;21.77;37.61
63556;BME280;49700;48.072;7.800;2023-03-22T08:29:21;99222.72;;;21.85;37.31
63556;BME280;49700;48.072;7.800;2023-03-22T08:31:48;99227.44;;;21.60;37.22
63556;BME280;49700;48.072;7.800;2023-03-22T08:34:14;99228.00;;;21.71;37.38
63556;BME280;49700;48.072;7.800;2023-03-22T08:36:40;99229.66;;;21.95;36.08
63556;BME280;49700;48.072;7.800;2023-03-22T08:39:06;99222.06;;;22.06;35.83
63556;BME280;49700;48.072;7.800;2023-03-22T08:41:55;99216.59;;;22.38;35.36
63556;BME280;49700;48.072;7.800;2023-03-22T08:44:22;99217.34;;;22.61;34.51
63556;BME280;49700;48.072;7.800;2023-03-22T08:46:48;99210.69;;;22.42;34.57
63556;BME280;49700;48.072;7.800;2023-03-22T08:49:13;99211.31;;;22.29;34.96
63556;BME280;49700;48.072;7.800;2023-03-22T08:51:50;99221.56;;;22.41;34.72
63556;BME280;49700;48.072;7.800;2023-03-22T08:54:28;99224.44;;;22.54;34.61
63556;BME280;49700;48.072;7.800;2023-03-22T08:57:00;99221.50;;;22.64;34.31
63556;BME280;49700;48.072;7.800;2023-03-22T08:59:41;99221.94;;;22.82;34.11
63556;BME280;49700;48.072;7.800;2023-03-22T09:02:24;99224.63;;;22.97;33.96
63556;BME280;49700;48.072;7.800;2023-03-22T09:04:51;99219.53;;;22.72;34.20
63556;BME280;49700;48.072;7.800;2023-03-22T09:07:17;99208.75;;;22.51;34.52
63556;BME280;49700;48.072;7.800;2023-03-22T09:09:51;99210.41;;;22.37;35.04
63556;BME280;49700;48.072;7.800;2023-03-22T09:12:16;99207.19;;;22.42;34.78
63556;BME280;49700;48.072;7.800;2023-03-22T09:14:42;99190.56;;;22.31;35.19
63556;BME280;49700;48.072;7.800;2023-03-22T09:17:07;99199.50;;;22.24;35.11
63556;BME280;49700;48.072;7.800;2023-03-22T09:19:33;99198.38;;;22.18;35.57
63556;BME280;49700;48.072;7.800;2023-03-22T09:21:59;99192.34;;;22.01;35.95
63556;BME280;49700;48.072;7.800;2023-03-22T09:24:36;99186.94;;;21.86;35.84
63556;BME280;49700;48.072;7.800;2023-03-22T09:27:02;99189.81;;;21.62;36.17
63556;BME280;49700;48.072;7.800;2023-03-22T09:29:28;99185.69;;;21.28;36.76
63556;BME280;49700;48.072;7.800;2023-03-22T09:31:54;99179.84;;;21.02;37.12
63556;BME280;49700;48.072;7.800;2023-03-22T09:34:24;99192.25;;;20.86;37.13
63556;BME280;49700;48.072;7.800;2023-03-22T09:36:50;99185.81;;;20.72;37.11
63556;BME280;49700;48.072;7.800;2023-03-22T09:39:22;99188.03;;;20.61;37.35
63556;BME280;49700;48.072;7.800;2023-03-22T09:41:54;99189.72;;;20.53;37.54
63556;BME280;49700;48.072;7.800;2023-03-22T09:44:27;99185.06;;;20.39;37.53
63556;BME280;49700;48.072;7.800;2023-03-22T09:46:56;99176.94;;;20.24;37.65
63556;BME280;49700;48.072;7.800;2023-03-22T09:49:37;99186.09;;;20.22;38.12
63556;BME280;49700;48.072;7.800;2023-03-22T09:52:11;99171.91;;;20.29;37.86
63556;BME280;49700;48.072;7.800;2023-03-22T09:54:39;99169.03;;;20.47;37.53
63556;BME280;49700;48.072;7.800;2023-03-22T10:10:22;99149.66;;;21.24;35.02
63556;BME280;49700;48.072;7.800;2023-03-22T10:13:23;99140.81;;;21.24;34.62
63556;BME280;49700;48.072;7.800;2023-03-22T10:15:56;99144.19;;;21.17;34.67
63556;BME280;49700;48.072;7.800;2023-03-22T10:18:38;99144.84;;;21.19;34.73
63556;BME280;49700;48.072;7.800;2023-03-22T10:21:10;99141.34;;;21.19;34.57
63556;BME280;49700;48.072;7.800;2023-03-22T10:26:20;99139.06;;;21.08;34.31
63556;BME280;49700;48.072;7.800;2023-03-22T10:28:54;99143.06;;;21.12;34.55
63556;BME280;49700;48.072;7.800;2023-03-22T10:31:24;99146.25;;;21.30;34.31
63556;BME280;49700;48.072;7.800;2023-03-22T10:33:58;99144.16;;;21.49;33.97
63556;BME280;49700;48.072;7.800;2023-03-22T10:36:29;99140.44;;;21.58;33.58
63556;BME280;49700;48.072;7.800;2023-03-22T10:41:47;99147.00;;;21.70;32.73
63556;BME280;49700;48.072;7.800;2023-03-22T10:44:16;99144.03;;;21.65;32.58
63556;BME280;49700;48.072;7.800;2023-03-22T10:46:44;99153.50;;;21.53;32.49
63556;BME280;49700;48.072;7.800;2023-03-22T10:49:26;99142.25;;;21.34;32.83
63556;BME280;49700;48.072;7.800;2023-03-22T10:51:56;99143.94;;;21.27;33.22
63556;BME280;49700;48.072;7.800;2023-03-22T10:54:24;99141.34;;;21.19;33.72
63556;BME280;49700;48.072;7.800;2023-03-22T10:56:50;99135.94;;;21.04;33.93
63556;BME280;49700;48.072;7.800;2023-03-22T10:59:45;99139.47;;;20.96;34.24
63556;BME280;49700;48.072;7.800;2023-03-22T11:02:24;99135.38;;;21.09;34.18
63556;BME280;49700;48.072;7.800;2023-03-22T11:04:55;99132.66;;;21.17;34.21
63556;BME280;49700;48.072;7.800;2023-03-22T11:07:33;99138.31;;;21.22;34.31
63556;BME280;49700;48.072;7.800;2023-03-22T11:10:11;99135.84;;;21.20;34.41
63556;BME280;49700;48.072;7.800;2023-03-22T11:12:42;99141.59;;;21.09;34.12
63556;BME280;49700;48.072;7.800;2023-03-22T11:15:21;99130.47;;;20.97;34.16
63556;BME280;49700;48.072;7.800;2023-03-22T11:17:48;99135.50;;;20.92;34.50
63556;BME280;49700;48.072;7.800;2023-03-22T11:20:16;99131.78;;;21.02;34.41
63556;BME280;49700;48.072;7.800;2023-03-22T11:22:43;99123.06;;;21.08;34.47
63556;BME280;49700;48.072;7.800;2023-03-22T11:25:28;99127.31;;;21.17;34.38
63556;BME280;49700;48.072;7.800;2023-03-22T11:30:31;99121.34;;;21.15;33.95
63556;BME280;49700;48.072;7.800;2023-03-22T11:33:17;99122.84;;;21.17;33.83
63556;BME280;49700;48.072;7.800;2023-03-22T11:35:45;99113.97;;;21.17;34.11
63556;BME280;49700;48.072;7.800;2023-03-22T11:38:36;99102.75;;;21.21;34.07
63556;BME280;49700;48.072;7.800;2023-03-22T11:41:06;99096.44;;;21.23;34.13
63556;BME280;49700;48.072;7.800;2023-03-22T11:43:35;99102.41;;;21.25;34.53
63556;BME280;49700;48.072;7.800;2023-03-22T11:46:03;99099.84;;;21.31;34.48
63556;BME280;49700;48.072;7.800;2023-03-22T11:48:30;99106.56;;;21.27;33.61
63556;BME280;49700;48.072;7.800;2023-03-22T11:51:11;99101.03;;;21.06;33.91
63556;BME280;49700;48.072;7.800;2023-03-22T11:53:40;99088.09;;;20.94;33.74
63556;BME280;49700;48.072;7.800;2023-03-22T11:56:09;99091.53;;;20.80;33.80
63556;BME280;49700;48.072;7.800;2023-03-22T12:01:04;99088.91;;;20.72;33.78
63556;BME280;49700;48.072;7.800;2023-03-22T12:03:34;99090.56;;;20.73;33.84
63556;BME280;49700;48.072;7.800;2023-03-22T12:06:03;99090.50;;;20.81;34.18
63556;BME280;49700;48.072;7.800;2023-03-22T12:08:43;99087.13;;;20.87;33.99
63556;BME280;49700;48.072;7.800;2023-03-22T12:11:15;99080.44;;;20.91;34.12
63556;BME280;49700;48.072;7.800;2023-03-22T12:16:14;99078.69;;;21.07;34.07
63556;BME280;49700;48.072;7.800;2023-03-22T12:18:50;99076.56;;;21.17;33.79
63556;BME280;49700;48.072;7.800;2023-03-22T12:21:18;99070.19;;;21.26;33.64
63556;BME280;49700;48.072;7.800;2023-03-22T12:23:44;99071.16;;;21.25;33.39
63556;BME280;49700;48.072;7.800;2023-03-22T12:26:19;99073.56;;;21.20;33.54
63556;BME280;49700;48.072;7.800;2023-03-22T12:28:55;99056.44;;;21.14;33.75
63556;BME280;49700;48.072;7.800;2023-03-22T12:31:36;99060.44;;;21.10;33.86
63556;BME280;49700;48.072;7.800;2023-03-22T12:34:11;99054.66;;;21.07;33.93
63556;BME280;49700;48.072;7.800;2023-03-22T12:36:45;99054.59;;;21.15;33.96
63556;BME280;49700;48.072;7.800;2023-03-22T12:39:21;99050.00;;;21.24;33.90
63556;BME280;49700;48.072;7.800;2023-03-22T12:41:52;99041.91;;;21.32;33.66
63556;BME280;49700;48.072;7.800;2023-03-22T12:44:41;99041.69;;;21.41;33.74
63556;BME280;49700;48.072;7.800;2023-03-22T12:47:22;99041.78;;;21.48;33.25
63556;BME280;49700;48.072;7.800;2023-03-22T12:50:25;99038.59;;;21.53;32.96
63556;BME280;49700;48.072;7.800;2023-03-22T12:52:55;99027.63;;;21.62;32.87
63556;BME280;49700;48.072;7.800;2023-03-22T12:55:30;99029.38;;;21.70;32.45
63556;BME280;49700;48.072;7.800;2023-03-22T12:57:57;99025.34;;;21.74;31.88
63556;BME280;49700;48.072;7.800;2023-03-22T13:00:28;99021.19;;;21.72;31.69
63556;BME280;49700;48.072;7.800;2023-03-22T13:03:15;99023.38;;;21.68;31.91
63556;BME280;49700;48.072;7.800;2023-03-22T13:05:52;99026.06;;;21.68;32.11
63556;BME280;49700;48.072;7.800;2023-03-22T13:08:23;99019.50;;;21.71;31.99
63556;BME280;49700;48.072;7.800;2023-03-22T13:11:15;99009.28;;;21.74;31.40
63556;BME280;49700;48.072;7.800;2023-03-22T13:13:46;99005.97;;;21.72;31.44
63556;BME280;49700;48.072;7.800;2023-03-22T13:16:15;99005.31;;;21.70;31.46
63556;BME280;49700;48.072;7.800;2023-03-22T13:21:18;99005.53;;;21.69;31.13
63556;BME280;49700;48.072;7.800;2023-03-22T13:26:30;99001.53;;;21.64;30.93
63556;BME280;49700;48.072;7.800;2023-03-22T13:28:58;98996.03;;;21.66;30.65
63556;BME280;49700;48.072;7.800;2023-03-22T13:31:36;98983.94;;;21.70;31.07
63556;BME280;49700;48.072;7.800;2023-03-22T13:34:02;98995.72;;;21.76;30.83
63556;BME280;49700;48.072;7.800;2023-03-22T13:36:30;98985.03;;;21.76;30.45
63556;BME280;49700;48.072;7.800;2023-03-22T13:39:01;98981.09;;;21.72;30.61
63556;BME280;49700;48.072;7.800;2023-03-22T13:41:33;98982.66;;;21.66;30.65
63556;BME280;49700;48.072;7.800;2023-03-22T13:44:01;98993.06;;;21.61;30.71
63556;BME280;49700;48.072;7.800;2023-03-22T13:46:42;98978.22;;;21.58;30.43
63556;BME280;49700;48.072;7.800;2023-03-22T13:49:41;98983.94;;;21.55;30.42
63556;BME280;49700;48.072;7.800;2023-03-22T13:52:23;98977.13;;;21.53;29.97
63556;BME280;49700;48.072;7.800;2023-03-22T13:54:50;98976.09;;;21.54;30.10
63556;BME280;49700;48.072;7.800;2023-03-22T13:57:45;98969.19;;;21.59;30.10
63556;BME280;49700;48.072;7.800;2023-03-22T14:00:34;98960.25;;;21.67;30.01
63556;BME280;49700;48.072;7.800;2023-03-22T14:03:11;98960.97;;;21.76;30.08
63556;BME280;49700;48.072;7.800;2023-03-22T14:05:37;98962.94;;;21.82;29.49
63556;BME280;49700;48.072;7.800;2023-03-22T14:08:03;98952.84;;;21.84;28.48
63556;BME280;49700;48.072;7.800;2023-03-22T14:10:37;98950.38;;;21.82;28.38
63556;BME280;49700;48.072;7.800;2023-03-22T14:13:18;98953.88;;;21.83;28.30
63556;BME280;49700;48.072;7.800;2023-03-22T14:15:50;98945.75;;;21.91;28.39
63556;BME280;49700;48.072;7.800;2023-03-22T14:18:32;98947.31;;;22.00;28.47
63556;BME280;49700;48.072;7.800;2023-03-22T14:21:04;98933.75;;;22.02;28.56
63556;BME280;49700;48.072;7.800;2023-03-22T14:23:39;98938.44;;;22.00;28.23
63556;BME280;49700;48.072;7.800;2023-03-22T14:26:14;98935.72;;;21.93;28.70
63556;BME280;49700;48.072;7.800;2023-03-22T14:28:40;98936.53;;;21.94;28.57
63556;BME280;49700;48.072;7.800;2023-03-22T14:31:12;98933.47;;;21.97;28.19
63556;BME280;49700;48.072;7.800;2023-03-22T14:33:39;98932.09;;;22.01;28.36
63556;BME280;49700;48.072;7.800;2023-03-22T14:36:11;98927.38;;;22.03;28.30
63556;BME280;49700;48.072;7.800;2023-03-22T14:38:40;98922.03;;;22.03;28.22
63556;BME280;49700;48.072;7.800;2023-03-22T14:41:15;98909.69;;;22.02;28.15